createdAt,value
2022-08-04T00:02:25.167Z,21808.09
2022-08-04T00:05:05.475Z,21775.56
2022-08-04T00:07:44.947Z,21832.50
2022-08-04T00:10:20.231Z,21828.44
2022-08-04T00:12:52.826Z,21818.25
2022-08-04T00:15:22.640Z,21836.56
2022-08-04T00:17:55.790Z,21751.16
2022-08-04T00:20:30.855Z,21741.00
2022-08-04T00:23:01.191Z,21700.31
2022-08-04T00:25:31.072Z,21655.59
2022-08-04T00:28:01.910Z,21677.97
2022-08-04T00:30:29.984Z,21700.31
2022-08-04T00:32:58.992Z,21653.56
2022-08-04T00:35:30.575Z,21614.94
2022-08-04T00:38:00.355Z,21643.38
2022-08-04T00:40:43.271Z,21584.44
2022-08-04T00:43:22.477Z,21562.06
2022-08-04T00:46:39.568Z,21602.72
2022-08-04T00:49:50.131Z,21580.34
2022-08-04T00:52:37.315Z,21616.97
2022-08-04T00:55:29.050Z,21588.50
2022-08-04T00:58:23.247Z,21549.84
2022-08-04T01:01:01.686Z,21566.13
2022-08-04T01:03:51.469Z,21551.91
2022-08-04T01:06:38.585Z,21529.53
2022-08-04T01:09:28.164Z,21578.31
2022-08-04T01:12:28.294Z,21531.56
2022-08-04T01:15:07.691Z,21566.13
2022-08-04T01:17:54.978Z,21517.31
2022-08-04T01:20:27.311Z,21558.00
2022-08-04T01:23:52.447Z,21533.59
2022-08-04T01:26:56.578Z,21527.50
2022-08-04T01:29:42.288Z,21578.31
2022-08-04T01:32:25.596Z,21507.16
2022-08-04T01:35:03.610Z,21488.88
2022-08-04T01:37:52.418Z,21505.13
2022-08-04T01:40:23.103Z,21525.47
2022-08-04T01:42:55.464Z,21531.56
2022-08-04T01:45:27.064Z,21521.41
2022-08-04T01:47:57.505Z,21492.94
2022-08-04T01:50:27.943Z,21476.66
2022-08-04T01:52:57.230Z,21472.59
2022-08-04T01:55:55.275Z,21515.28
2022-08-04T01:58:20.637Z,21476.66
2022-08-04T02:00:59.674Z,21499.03
2022-08-04T02:04:18.486Z,21466.50
2022-08-04T02:06:39.094Z,21448.19
2022-08-04T02:09:22.920Z,21427.88
2022-08-04T02:12:05.851Z,21429.91
2022-08-04T02:14:56.975Z,21454.28
2022-08-04T02:17:32.600Z,21464.47
2022-08-04T02:20:10.185Z,21397.38
2022-08-04T02:22:50.114Z,21429.91
2022-08-04T02:25:25.534Z,21399.41
2022-08-04T02:28:13.130Z,21436.00
2022-08-04T02:30:55.022Z,21401.44
2022-08-04T02:33:35.801Z,21387.19
2022-08-04T02:36:07.743Z,21397.38
2022-08-04T02:38:57.230Z,21352.63
2022-08-04T02:41:29.016Z,21397.38
2022-08-04T02:44:00.585Z,21411.59
2022-08-04T02:46:30.467Z,21356.69
2022-08-04T02:49:03.214Z,21366.88
2022-08-04T02:51:35.325Z,21356.69
2022-08-04T02:54:07.382Z,21383.13
2022-08-04T02:56:38.640Z,21360.78
2022-08-04T02:59:09.484Z,21346.53
2022-08-04T03:01:56.998Z,21326.22
2022-08-04T03:04:52.150Z,21320.09
2022-08-04T03:08:07.653Z,21314.00
2022-08-04T03:11:14.075Z,21273.34
2022-08-04T03:14:38.020Z,21281.47
2022-08-04T03:18:10.756Z,21273.34
2022-08-04T03:21:40.291Z,21279.44
2022-08-04T03:25:11.996Z,21250.97
2022-08-04T03:28:27.684Z,21283.50
2022-08-04T03:31:40.445Z,21250.97
2022-08-04T03:34:29.299Z,21305.88
2022-08-04T03:37:45.284Z,21224.56
2022-08-04T03:40:55.305Z,21273.34
2022-08-04T03:44:01.813Z,21267.25
2022-08-04T03:47:08.836Z,21265.22
2022-08-04T03:50:18.344Z,21230.66
2022-08-04T03:53:26.755Z,21242.84
2022-08-04T03:56:38.031Z,21255.03
2022-08-04T03:59:55.805Z,21228.63
2022-08-04T04:03:28.500Z,21200.16
2022-08-04T04:06:30.735Z,21263.19
2022-08-04T04:09:57.581Z,21242.84
2022-08-04T04:13:02.691Z,21250.97
2022-08-04T04:16:04.286Z,21232.69
2022-08-04T04:19:09.519Z,21269.28
2022-08-04T04:22:04.542Z,21244.88
2022-08-04T04:24:56.178Z,21234.72
2022-08-04T04:27:44.336Z,21228.63
2022-08-04T04:30:21.826Z,21220.47
2022-08-04T04:33:15.750Z,21253.00
2022-08-04T04:36:04.646Z,21255.03
2022-08-04T04:39:08.071Z,21248.94
2022-08-04T04:42:13.981Z,21314.00
2022-08-04T04:45:11.711Z,21307.91
2022-08-04T04:48:08.490Z,21314.00
2022-08-04T04:50:55.559Z,21324.19
2022-08-04T04:53:36.844Z,21303.84
2022-08-04T04:56:13.224Z,21372.97
2022-08-04T04:58:44.692Z,21403.47
2022-08-04T05:01:45.496Z,21370.94
2022-08-04T05:05:16.247Z,21655.59
2022-08-04T05:08:45.265Z,22259.53
2022-08-04T05:12:44.967Z,22839.16
2022-08-04T05:15:09.498Z,23274.44
2022-08-04T05:17:43.207Z,23447.34
2022-08-04T05:20:21.364Z,23530.75
2022-08-04T05:22:56.003Z,23416.84
2022-08-04T05:25:33.196Z,23099.50
2022-08-04T05:28:08.032Z,22782.22
2022-08-04T05:30:48.524Z,22584.94
2022-08-04T05:33:28.553Z,22450.69
2022-08-04T05:36:19.161Z,22318.50
2022-08-04T05:38:54.786Z,22220.91
2022-08-04T05:41:32.357Z,22216.81
2022-08-04T05:44:14.176Z,22182.25
2022-08-04T05:46:53.585Z,22166.00
2022-08-04T05:49:24.479Z,22137.50
2022-08-04T05:51:55.863Z,22133.44
2022-08-04T05:54:26.079Z,22107.00
2022-08-04T05:56:56.203Z,22104.97
2022-08-04T05:59:26.513Z,22117.19
2022-08-04T06:02:00.183Z,22127.34
2022-08-04T06:04:38.280Z,22235.13
2022-08-04T06:07:08.120Z,22170.06
2022-08-04T06:09:36.478Z,22159.88
2022-08-04T06:12:10.545Z,22149.72
2022-08-04T06:14:42.767Z,22202.59
2022-08-04T06:19:56.791Z,22192.44
2022-08-04T06:20:19.610Z,22178.19
2022-08-04T06:22:56.599Z,22216.81
2022-08-04T06:25:32.225Z,22247.34
2022-08-04T06:28:03.099Z,22310.38
2022-08-04T06:30:33.335Z,22310.38
2022-08-04T06:33:13.531Z,22342.91
2022-08-04T06:35:43.276Z,22336.81
2022-08-04T06:38:12.752Z,22344.94
2022-08-04T06:40:42.501Z,22412.06
2022-08-04T06:43:12.564Z,22422.22
2022-08-04T06:45:43.643Z,22481.22
2022-08-04T06:48:17.307Z,22477.13
2022-08-04T06:51:27.496Z,22446.63
2022-08-04T06:53:37.779Z,22499.50
2022-08-04T06:56:07.110Z,22481.22
2022-08-04T06:58:36.349Z,22517.81
2022-08-04T07:01:05.843Z,22509.69
2022-08-04T07:03:37.478Z,22525.94
2022-08-04T07:06:13.996Z,22558.50
2022-08-04T07:08:43.961Z,22540.19
2022-08-04T07:11:13.449Z,22532.06
2022-08-04T07:13:45.274Z,22556.47
2022-08-04T07:16:15.842Z,22582.91
2022-08-04T07:18:45.983Z,22572.72
2022-08-04T07:21:23.953Z,22562.56
2022-08-04T07:23:52.404Z,22564.59
2022-08-04T07:26:20.750Z,22656.13
2022-08-04T07:28:49.013Z,22680.53
2022-08-04T07:31:33.528Z,22643.91
2022-08-04T07:34:16.616Z,22652.03
2022-08-04T07:36:52.988Z,22688.66
2022-08-04T07:39:28.395Z,22694.75
2022-08-04T07:41:59.396Z,22727.28
2022-08-04T07:44:32.881Z,22761.88
2022-08-04T07:47:02.754Z,22737.47
2022-08-04T07:49:56.062Z,22786.28
2022-08-04T07:52:23.506Z,22814.75
2022-08-04T07:54:53.083Z,22794.41
2022-08-04T07:57:40.686Z,22839.16
2022-08-04T08:00:14.189Z,22873.75
2022-08-04T08:02:44.060Z,22883.91
2022-08-04T08:05:18.183Z,22906.28
2022-08-04T08:07:50.111Z,22928.66
2022-08-04T08:10:22.436Z,22965.28
2022-08-04T08:12:52.323Z,23022.22
2022-08-04T08:15:22.047Z,23001.88
2022-08-04T08:17:59.595Z,23024.25
2022-08-04T08:20:32.776Z,23048.66
2022-08-04T08:23:03.506Z,23099.50
2022-08-04T08:25:33.669Z,23136.13
2022-08-04T08:28:05.357Z,23195.13
2022-08-04T08:30:35.007Z,23221.56
2022-08-04T08:33:07.218Z,23266.31
2022-08-04T08:35:52.942Z,23292.75
2022-08-04T08:38:37.941Z,23329.38
2022-08-04T08:41:42.937Z,23325.31
2022-08-04T08:44:46.619Z,23317.16
2022-08-04T08:48:04.808Z,23343.63
2022-08-04T08:51:04.058Z,23355.81
2022-08-04T08:54:07.191Z,23359.88
2022-08-04T08:56:50.201Z,23453.47
2022-08-04T09:00:00.494Z,23496.19
2022-08-04T09:03:13.885Z,23547.03
2022-08-04T09:06:08.146Z,23573.47
2022-08-04T09:09:05.510Z,23620.28
2022-08-04T09:11:46.494Z,23601.97
2022-08-04T09:14:23.910Z,23722.00
2022-08-04T09:16:57.971Z,23681.31
2022-08-04T09:19:38.756Z,23748.44
2022-08-04T09:22:17.849Z,23732.16
2022-08-04T09:24:55.860Z,23726.06
2022-08-04T09:27:36.389Z,23776.91
2022-08-04T09:30:08.564Z,23809.47
2022-08-04T09:32:48.560Z,23815.56
2022-08-04T09:35:30.001Z,23872.53
2022-08-04T09:38:14.115Z,23913.22
2022-08-04T09:40:53.148Z,23994.59
2022-08-04T09:44:43.073Z,24051.56
2022-08-04T09:46:37.896Z,24049.53
2022-08-04T09:49:17.976Z,24051.56
2022-08-04T09:52:05.287Z,24165.50
2022-08-04T09:54:53.875Z,24181.78
2022-08-04T09:57:54.182Z,24222.47
2022-08-04T10:00:38.474Z,24259.09
2022-08-04T10:03:19.700Z,24346.59
2022-08-04T10:06:09.308Z,24401.53
2022-08-04T10:09:02.105Z,24423.91
2022-08-04T10:12:03.111Z,24521.59
2022-08-04T10:14:48.879Z,24556.19
2022-08-04T10:17:52.839Z,24602.97
2022-08-04T10:20:46.353Z,24613.16
2022-08-04T10:23:55.556Z,24627.41
2022-08-04T10:26:32.691Z,24680.31
2022-08-04T10:29:10.854Z,24712.88
2022-08-04T10:31:49.343Z,24739.31
2022-08-04T10:34:25.985Z,24828.84
2022-08-04T10:37:04.900Z,24865.50
2022-08-04T10:40:08.023Z,24867.53
2022-08-04T10:42:49.476Z,24891.94
2022-08-04T10:45:25.011Z,24889.91
2022-08-04T10:48:03.033Z,24881.78
2022-08-04T10:50:31.611Z,24908.22
2022-08-04T10:53:09.737Z,25003.88
2022-08-04T10:56:07.846Z,25018.13
2022-08-04T10:58:49.135Z,24999.81
2022-08-04T11:01:51.015Z,25093.41
2022-08-04T11:04:27.283Z,25081.19
2022-08-04T11:06:59.350Z,25172.78
2022-08-04T11:09:29.899Z,24983.53
2022-08-04T11:12:06.834Z,25038.47
2022-08-04T11:14:48.357Z,24963.16
2022-08-04T11:17:25.580Z,25056.78
2022-08-04T11:20:33.695Z,25056.78
2022-08-04T11:23:09.347Z,25138.19
2022-08-04T11:25:52.036Z,25117.84
2022-08-04T11:28:34.233Z,25056.78
2022-08-04T11:31:07.014Z,25144.28
2022-08-04T11:33:46.828Z,25182.97
2022-08-04T11:36:23.605Z,25272.50
2022-08-04T11:39:04.496Z,25252.16
2022-08-04T11:41:46.653Z,25266.41
2022-08-04T11:44:27.627Z,25298.97
2022-08-04T11:47:03.598Z,25294.91
2022-08-04T11:49:57.194Z,25476.03
2022-08-04T11:52:30.584Z,25412.94
2022-08-04T11:55:04.507Z,25451.63
2022-08-04T11:57:35.916Z,25504.53
2022-08-04T12:00:11.081Z,25443.47
2022-08-04T12:03:02.565Z,25394.63
2022-08-04T12:05:37.784Z,25382.41
2022-08-04T12:08:28.648Z,25384.44
2022-08-04T12:11:16.369Z,25386.47
2022-08-04T12:13:51.551Z,25315.25
2022-08-04T12:16:30.496Z,25213.50
2022-08-04T12:19:03.696Z,25343.75
2022-08-04T12:21:45.036Z,25504.53
2022-08-04T12:24:27.183Z,25647.00
2022-08-04T12:27:04.642Z,25789.50
2022-08-04T12:29:38.149Z,25675.50
2022-08-04T12:32:18.658Z,25685.69
2022-08-04T12:35:01.708Z,25695.84
2022-08-04T12:37:49.507Z,25744.72
2022-08-04T12:40:29.647Z,25628.69
2022-08-04T12:43:09.861Z,25651.06
2022-08-04T12:45:44.408Z,25606.28
2022-08-04T12:48:21.248Z,25583.91
2022-08-04T12:50:52.726Z,25541.16
2022-08-04T12:53:31.857Z,25402.75
2022-08-04T12:56:03.603Z,25390.56
2022-08-04T12:58:43.467Z,25404.81
2022-08-04T13:02:09.882Z,25480.09
2022-08-04T13:04:16.632Z,25602.22
2022-08-04T13:06:54.679Z,25693.81
2022-08-04T13:09:30.659Z,25671.44
2022-08-04T13:12:03.990Z,25492.31
2022-08-04T13:14:43.424Z,25496.38
2022-08-04T13:17:11.863Z,25512.66
2022-08-04T13:19:47.137Z,25553.38
2022-08-04T13:22:27.071Z,25571.69
2022-08-04T13:25:18.416Z,25541.16
2022-08-04T13:27:48.734Z,25441.44
2022-08-04T13:30:26.222Z,25390.56
2022-08-04T13:32:59.510Z,25296.94
2022-08-04T13:35:55.381Z,25337.63
2022-08-04T13:38:20.012Z,25408.88
2022-08-04T13:40:51.236Z,25313.22
2022-08-04T13:44:15.679Z,25368.16
2022-08-04T13:46:28.046Z,25366.13
2022-08-04T13:51:59.041Z,25417.00
2022-08-04T13:54:36.095Z,25522.84
2022-08-04T13:57:19.390Z,25687.72
2022-08-04T13:59:52.919Z,25815.94
2022-08-04T14:02:34.737Z,25972.69
2022-08-04T14:05:18.431Z,25870.91
2022-08-04T14:07:55.181Z,25824.09
2022-08-04T14:10:24.644Z,25785.41
2022-08-04T14:12:56.223Z,25720.28
2022-08-04T14:16:02.503Z,25793.56
2022-08-04T14:18:32.025Z,25958.44
2022-08-04T14:21:09.492Z,26054.09
2022-08-04T14:23:49.095Z,26021.53
2022-08-04T14:26:33.392Z,25956.41
2022-08-04T14:29:27.282Z,25663.28
2022-08-04T14:32:04.385Z,25463.81
2022-08-04T14:34:41.847Z,25417.00
2022-08-04T14:37:16.919Z,25307.09
2022-08-04T14:40:18.236Z,25298.97
2022-08-04T14:42:42.738Z,25227.72
2022-08-04T14:45:13.046Z,25349.84
2022-08-04T14:47:51.983Z,25431.25
2022-08-04T14:50:21.957Z,25543.19
2022-08-04T14:52:50.187Z,25677.53
2022-08-04T14:55:21.262Z,25581.88
2022-08-04T14:58:36.577Z,25606.28
2022-08-04T15:00:39.528Z,25496.38
2022-08-04T15:03:11.162Z,25581.88
2022-08-04T15:06:01.546Z,25577.81
2022-08-04T15:08:31.961Z,25649.03
2022-08-04T15:11:02.894Z,25736.56
2022-08-04T15:13:33.182Z,25801.69
2022-08-04T15:16:06.645Z,25671.44
2022-08-04T15:18:39.160Z,25581.88
2022-08-04T15:21:09.137Z,25659.22
2022-08-04T15:23:39.155Z,25476.03
2022-08-04T15:26:14.090Z,25374.28
2022-08-04T15:28:50.312Z,25313.22
2022-08-04T15:32:07.133Z,25294.91
2022-08-04T15:34:13.659Z,25317.28
2022-08-04T15:36:56.921Z,25260.28
2022-08-04T15:39:39.261Z,25244.00
2022-08-04T15:42:21.613Z,25321.34
2022-08-04T15:45:23.749Z,25160.56
2022-08-04T15:48:28.993Z,25164.66
2022-08-04T15:51:15.163Z,25054.75
2022-08-04T15:54:30.761Z,24993.69
2022-08-04T15:57:02.360Z,24906.19
2022-08-04T16:00:11.207Z,24877.69
2022-08-04T16:02:44.325Z,24843.09
2022-08-04T16:05:36.822Z,24812.56
2022-08-04T16:08:17.457Z,24804.44
2022-08-04T16:10:49.403Z,24845.13
2022-08-04T16:13:21.275Z,24867.53
2022-08-04T16:15:55.054Z,24743.38
2022-08-04T16:18:43.798Z,24725.06
2022-08-04T16:21:24.464Z,24666.06
2022-08-04T16:24:29.665Z,24737.28
2022-08-04T16:27:00.343Z,24735.25
2022-08-04T16:29:38.915Z,24698.63
2022-08-04T16:32:22.627Z,24755.59
2022-08-04T16:34:59.558Z,24690.47
2022-08-04T16:37:38.586Z,24647.75
2022-08-04T16:40:37.739Z,24600.94
2022-08-04T16:43:10.313Z,24560.25
2022-08-04T16:45:58.775Z,24531.75
2022-08-04T16:48:29.111Z,24535.84
2022-08-04T16:51:05.749Z,24474.78
2022-08-04T16:53:53.965Z,24434.09
2022-08-04T16:56:35.327Z,24397.47
2022-08-04T16:59:09.627Z,24401.53
2022-08-04T17:01:39.427Z,24371.03
2022-08-04T17:04:08.099Z,24328.28
2022-08-04T17:06:39.900Z,24312.00
2022-08-04T17:09:13.498Z,24295.72
2022-08-04T17:11:43.697Z,24228.59
2022-08-04T17:14:12.338Z,24177.72
2022-08-04T17:16:43.866Z,24151.28
2022-08-04T17:19:24.127Z,24076.00
2022-08-04T17:22:03.030Z,24063.78
2022-08-04T17:24:38.019Z,23998.69
2022-08-04T17:28:20.168Z,24031.22
2022-08-04T17:29:55.625Z,23960.03
2022-08-04T17:32:24.822Z,23921.38
2022-08-04T17:34:57.523Z,23919.34
2022-08-04T17:40:25.432Z,23856.25
2022-08-04T17:44:05.100Z,23840.00
2022-08-04T17:46:28.984Z,23805.41
2022-08-04T17:49:05.137Z,23768.78
2022-08-04T17:52:04.199Z,23719.97
2022-08-04T17:54:37.312Z,23707.75
2022-08-04T17:57:20.742Z,23669.09
2022-08-04T17:59:56.346Z,23636.53
2022-08-04T18:02:32.665Z,23620.28
2022-08-04T18:05:07.234Z,23593.81
2022-08-04T18:08:39.841Z,23549.06
2022-08-04T18:10:55.810Z,23555.19
2022-08-04T18:13:28.486Z,23522.63
2022-08-04T18:16:04.365Z,23508.38
2022-08-04T18:18:32.921Z,23486.00
2022-08-04T18:21:03.308Z,23465.66
2022-08-04T18:23:33.682Z,23445.31
2022-08-04T18:26:03.782Z,23449.38
2022-08-04T18:28:34.026Z,23453.47
2022-08-04T18:31:02.777Z,23392.44
2022-08-04T18:33:39.894Z,23323.28
2022-08-04T18:36:34.922Z,23294.78
2022-08-04T18:39:13.166Z,23264.28
2022-08-04T18:42:02.561Z,23243.94
2022-08-04T18:44:51.874Z,23243.94
2022-08-04T18:47:23.001Z,23205.28
2022-08-04T18:50:58.861Z,23215.47
2022-08-04T18:52:42.105Z,23168.69
2022-08-04T18:55:56.189Z,23154.44
2022-08-04T18:58:07.033Z,23148.34
2022-08-04T19:00:37.928Z,23121.88
2022-08-04T19:03:16.475Z,23083.25
2022-08-04T19:05:52.280Z,23089.34
2022-08-04T19:11:35.262Z,23050.69
2022-08-04T19:16:48.451Z,23005.94
2022-08-04T19:19:18.215Z,22957.13
2022-08-04T19:22:00.283Z,22991.72
2022-08-04T19:27:18.526Z,22959.16
2022-08-04T19:29:47.665Z,22914.41
2022-08-04T19:32:17.360Z,22902.22
2022-08-04T19:34:47.539Z,22906.28
2022-08-04T19:37:56.205Z,22908.31
2022-08-04T19:40:10.164Z,22857.47
2022-08-04T19:42:38.488Z,22869.66
2022-08-04T19:45:09.877Z,22841.19
2022-08-04T19:48:18.034Z,22898.16
2022-08-04T19:50:34.313Z,22831.03
2022-08-04T19:53:18.653Z,22847.28
2022-08-04T19:55:49.537Z,22829.00
2022-08-04T19:58:19.752Z,22826.97
2022-08-04T20:00:51.324Z,22790.34
2022-08-04T20:03:21.229Z,22798.47
2022-08-04T20:05:54.489Z,22763.91
2022-08-04T20:08:24.670Z,22749.66
2022-08-04T20:10:54.880Z,22770.00
2022-08-04T20:13:30.660Z,22749.66
2022-08-04T20:16:28.469Z,22700.84
2022-08-04T20:19:00.950Z,22725.25
2022-08-04T20:21:54.075Z,22713.06
2022-08-04T20:24:38.138Z,22676.44
2022-08-04T20:27:08.946Z,22702.88
2022-08-04T20:29:43.574Z,22688.66
2022-08-04T20:32:19.552Z,22680.53
2022-08-04T20:34:49.769Z,22670.34
2022-08-04T20:37:22.991Z,22650.00
2022-08-04T20:39:55.464Z,22662.22
2022-08-04T20:42:27.135Z,22662.22
2022-08-04T20:45:02.182Z,22702.88
2022-08-04T20:47:35.586Z,22676.44
2022-08-04T20:50:08.699Z,22660.19
2022-08-04T20:52:39.382Z,22635.78
2022-08-04T20:55:10.283Z,22633.75
2022-08-04T20:57:50.287Z,22643.91
2022-08-04T21:00:26.347Z,22611.38
2022-08-04T21:02:54.883Z,22613.41
2022-08-04T21:05:24.565Z,22615.44
2022-08-04T21:07:56.553Z,22629.66
2022-08-04T21:10:25.788Z,22652.03
2022-08-04T21:12:54.305Z,22666.28
2022-08-04T21:15:25.561Z,22664.25
2022-08-04T21:17:58.561Z,22713.06
2022-08-04T21:23:21.780Z,22743.56
2022-08-04T21:25:57.944Z,22839.16
2022-08-04T21:28:26.061Z,22816.78
2022-08-04T21:30:55.995Z,22904.25
2022-08-04T21:33:48.993Z,22875.78
2022-08-04T21:36:19.818Z,22969.34
2022-08-04T21:38:51.381Z,22922.56
2022-08-04T21:41:24.992Z,22953.06
2022-08-04T21:43:58.809Z,22965.28
2022-08-04T21:46:27.590Z,22871.72
2022-08-04T21:48:59.186Z,22857.47
2022-08-04T21:51:58.808Z,22804.59
2022-08-04T21:54:21.960Z,22851.38
2022-08-04T21:56:52.473Z,22820.84
2022-08-04T21:59:23.606Z,22826.97
2022-08-04T22:02:01.591Z,22812.72
2022-08-04T22:04:31.073Z,22812.72
2022-08-04T22:07:03.218Z,22794.41
2022-08-04T22:09:38.565Z,22800.50
2022-08-04T22:12:11.950Z,22816.78
2022-08-04T22:14:40.682Z,22751.69
2022-08-04T22:17:13.405Z,22749.66
2022-08-04T22:19:56.244Z,22729.34
2022-08-04T22:22:29.470Z,22770.00
2022-08-04T22:25:12.512Z,22759.84
2022-08-04T22:28:03.381Z,22778.16
2022-08-04T22:30:36.829Z,22763.91
2022-08-04T22:33:08.346Z,22806.63
2022-08-04T22:35:49.180Z,22780.19
2022-08-04T22:38:25.602Z,22725.25
2022-08-04T22:40:59.780Z,22670.34
2022-08-04T22:43:33.341Z,22647.97
2022-08-04T22:46:05.322Z,22566.63
2022-08-04T22:48:37.303Z,22652.03
2022-08-04T22:51:08.267Z,22586.97
2022-08-04T22:53:38.242Z,22513.75
2022-08-04T22:56:10.588Z,22495.44
2022-08-04T22:58:45.860Z,22440.53
2022-08-04T23:01:19.662Z,22403.94
2022-08-04T23:03:55.500Z,22375.44
2022-08-04T23:06:28.472Z,22408.00
2022-08-04T23:08:59.294Z,22466.97
2022-08-04T23:11:34.517Z,22428.31
2022-08-04T23:14:03.277Z,22379.53
2022-08-04T23:16:32.681Z,22336.81
2022-08-04T23:19:09.904Z,22310.38
2022-08-04T23:21:40.951Z,22265.63
2022-08-04T23:24:16.682Z,22257.50
2022-08-04T23:26:48.031Z,22265.63
2022-08-04T23:29:16.101Z,22263.59
2022-08-04T23:31:59.560Z,22294.09
2022-08-04T23:34:29.378Z,22253.44
2022-08-04T23:36:59.026Z,22224.97
2022-08-04T23:39:42.297Z,22218.84
2022-08-04T23:42:21.198Z,22188.34
2022-08-04T23:44:49.929Z,22184.28
2022-08-04T23:48:15.435Z,22168.03
2022-08-04T23:50:07.937Z,22168.03
2022-08-04T23:52:36.066Z,22119.22
2022-08-04T23:55:09.859Z,22094.81
2022-08-04T23:58:06.130Z,22147.69
